sensor_id;sensor_type;location;lat;lon;timestamp;P1;durP1;ratioP1;P2;durP2;ratioP2
10825;SDS011;5466;55.898;14.094;2023-09-19T00:00:27;34.80;;;22.42;;
10825;SDS011;5466;55.898;14.094;2023-09-19T00:02:28;36.63;;;22.48;;
10825;SDS011;5466;55.898;14.094;2023-09-19T00:04:30;32.55;;;21.45;;
10825;SDS011;5466;55.898;14.094;2023-09-19T00:06:32;32.58;;;21.55;;
10825;SDS011;5466;55.898;14.094;2023-09-19T00:08:35;37.88;;;21.73;;
10825;SDS011;5466;55.898;14.094;2023-09-19T00:10:36;35.22;;;20.42;;
10825;SDS011;5466;55.898;14.094;2023-09-19T00:12:37;31.00;;;20.08;;
10825;SDS011;5466;55.898;14.094;2023-09-19T00:14:42;33.85;;;21.42;;
10825;SDS011;5466;55.898;14.094;2023-09-19T00:16:43;28.55;;;20.25;;
10825;SDS011;5466;55.898;14.094;2023-09-19T00:18:44;31.48;;;20.00;;
10825;SDS011;5466;55.898;14.094;2023-09-19T00:20:45;33.60;;;20.88;;
10825;SDS011;5466;55.898;14.094;2023-09-19T00:22:49;33.67;;;20.15;;
10825;SDS011;5466;55.898;14.094;2023-09-19T00:24:53;36.67;;;21.38;;
10825;SDS011;5466;55.898;14.094;2023-09-19T00:26:55;35.58;;;20.95;;
10825;SDS011;5466;55.898;14.094;2023-09-19T00:28:55;35.05;;;21.00;;
10825;SDS011;5466;55.898;14.094;2023-09-19T00:30:57;38.00;;;21.52;;
10825;SDS011;5466;55.898;14.094;2023-09-19T00:33:01;40.38;;;21.65;;
10825;SDS011;5466;55.898;14.094;2023-09-19T00:35:05;39.00;;;21.55;;
10825;SDS011;5466;55.898;14.094;2023-09-19T00:37:08;42.78;;;21.50;;
10825;SDS011;5466;55.898;14.094;2023-09-19T00:39:11;31.88;;;19.83;;
10825;SDS011;5466;55.898;14.094;2023-09-19T00:41:11;29.75;;;19.60;;
10825;SDS011;5466;55.898;14.094;2023-09-19T00:43:12;38.47;;;21.45;;
10825;SDS011;5466;55.898;14.094;2023-09-19T00:45:14;33.03;;;21.15;;
10825;SDS011;5466;55.898;14.094;2023-09-19T00:47:16;33.45;;;20.30;;
10825;SDS011;5466;55.898;14.094;2023-09-19T00:49:18;37.95;;;22.23;;
10825;SDS011;5466;55.898;14.094;2023-09-19T00:51:22;35.28;;;20.88;;
10825;SDS011;5466;55.898;14.094;2023-09-19T00:53:25;35.55;;;20.23;;
10825;SDS011;5466;55.898;14.094;2023-09-19T00:55:27;36.85;;;20.40;;
10825;SDS011;5466;55.898;14.094;2023-09-19T00:57:30;39.08;;;19.80;;
10825;SDS011;5466;55.898;14.094;2023-09-19T00:59:32;32.05;;;19.02;;
10825;SDS011;5466;55.898;14.094;2023-09-19T01:01:33;38.08;;;19.52;;
10825;SDS011;5466;55.898;14.094;2023-09-19T01:03:34;38.03;;;20.65;;
10825;SDS011;5466;55.898;14.094;2023-09-19T01:05:35;26.27;;;15.65;;
10825;SDS011;5466;55.898;14.094;2023-09-19T01:07:36;29.38;;;18.67;;
10825;SDS011;5466;55.898;14.094;2023-09-19T01:09:38;34.95;;;19.50;;
10825;SDS011;5466;55.898;14.094;2023-09-19T01:11:40;30.77;;;18.17;;
10825;SDS011;5466;55.898;14.094;2023-09-19T01:13:56;30.50;;;18.73;;
10825;SDS011;5466;55.898;14.094;2023-09-19T01:16:11;30.63;;;17.80;;
10825;SDS011;5466;55.898;14.094;2023-09-19T01:23:19;29.88;;;17.67;;
10825;SDS011;5466;55.898;14.094;2023-09-19T01:25:50;33.78;;;17.92;;
10825;SDS011;5466;55.898;14.094;2023-09-19T01:28:10;32.88;;;18.08;;
10825;SDS011;5466;55.898;14.094;2023-09-19T01:30:22;33.17;;;17.85;;
10825;SDS011;5466;55.898;14.094;2023-09-19T01:32:27;29.83;;;16.50;;
10825;SDS011;5466;55.898;14.094;2023-09-19T01:35:02;24.77;;;16.05;;
10825;SDS011;5466;55.898;14.094;2023-09-19T01:37:00;31.83;;;16.45;;
10825;SDS011;5466;55.898;14.094;2023-09-19T01:39:06;26.70;;;15.95;;
10825;SDS011;5466;55.898;14.094;2023-09-19T01:41:11;27.63;;;15.65;;
10825;SDS011;5466;55.898;14.094;2023-09-19T01:43:19;25.70;;;15.30;;
10825;SDS011;5466;55.898;14.094;2023-09-19T01:45:46;30.00;;;15.30;;
10825;SDS011;5466;55.898;14.094;2023-09-19T01:55:30;20.50;;;13.23;;
10825;SDS011;5466;55.898;14.094;2023-09-19T02:00:12;21.92;;;13.45;;
10825;SDS011;5466;55.898;14.094;2023-09-19T02:02:14;18.90;;;12.68;;
10825;SDS011;5466;55.898;14.094;2023-09-19T02:04:17;21.50;;;12.88;;
10825;SDS011;5466;55.898;14.094;2023-09-19T02:06:18;18.88;;;11.93;;
10825;SDS011;5466;55.898;14.094;2023-09-19T02:08:19;20.50;;;12.02;;
10825;SDS011;5466;55.898;14.094;2023-09-19T02:10:23;19.50;;;11.43;;
10825;SDS011;5466;55.898;14.094;2023-09-19T02:12:24;18.35;;;12.18;;
10825;SDS011;5466;55.898;14.094;2023-09-19T02:14:24;18.50;;;11.40;;
10825;SDS011;5466;55.898;14.094;2023-09-19T02:16:25;18.75;;;10.70;;
10825;SDS011;5466;55.898;14.094;2023-09-19T02:18:26;21.25;;;10.82;;
10825;SDS011;5466;55.898;14.094;2023-09-19T02:20:28;18.65;;;10.10;;
10825;SDS011;5466;55.898;14.094;2023-09-19T02:22:28;18.70;;;10.20;;
10825;SDS011;5466;55.898;14.094;2023-09-19T02:24:29;15.25;;;9.63;;
10825;SDS011;5466;55.898;14.094;2023-09-19T02:26:31;10.18;;;8.25;;
10825;SDS011;5466;55.898;14.094;2023-09-19T02:28:31;13.88;;;8.05;;
10825;SDS011;5466;55.898;14.094;2023-09-19T02:30:32;9.88;;;7.47;;
10825;SDS011;5466;55.898;14.094;2023-09-19T02:32:33;10.82;;;7.22;;
10825;SDS011;5466;55.898;14.094;2023-09-19T02:34:36;8.13;;;6.60;;
10825;SDS011;5466;55.898;14.094;2023-09-19T02:36:39;11.23;;;6.97;;
10825;SDS011;5466;55.898;14.094;2023-09-19T02:38:39;14.25;;;7.03;;
10825;SDS011;5466;55.898;14.094;2023-09-19T02:40:40;6.78;;;5.80;;
10825;SDS011;5466;55.898;14.094;2023-09-19T02:42:42;8.48;;;5.93;;
10825;SDS011;5466;55.898;14.094;2023-09-19T02:44:48;7.75;;;5.43;;
10825;SDS011;5466;55.898;14.094;2023-09-19T02:46:49;7.70;;;5.30;;
10825;SDS011;5466;55.898;14.094;2023-09-19T02:48:50;6.57;;;4.80;;
10825;SDS011;5466;55.898;14.094;2023-09-19T02:50:51;7.47;;;4.88;;
10825;SDS011;5466;55.898;14.094;2023-09-19T02:52:52;10.27;;;5.20;;
10825;SDS011;5466;55.898;14.094;2023-09-19T02:54:52;8.57;;;4.60;;
10825;SDS011;5466;55.898;14.094;2023-09-19T02:56:53;8.85;;;4.50;;
10825;SDS011;5466;55.898;14.094;2023-09-19T02:58:53;11.75;;;4.43;;
10825;SDS011;5466;55.898;14.094;2023-09-19T03:00:55;7.03;;;3.80;;
10825;SDS011;5466;55.898;14.094;2023-09-19T03:02:56;5.20;;;4.13;;
10825;SDS011;5466;55.898;14.094;2023-09-19T03:04:57;6.97;;;4.68;;
10825;SDS011;5466;55.898;14.094;2023-09-19T03:07:00;6.53;;;4.50;;
10825;SDS011;5466;55.898;14.094;2023-09-19T03:09:01;7.13;;;3.88;;
10825;SDS011;5466;55.898;14.094;2023-09-19T03:11:06;6.35;;;4.20;;
10825;SDS011;5466;55.898;14.094;2023-09-19T03:13:09;9.00;;;3.78;;
10825;SDS011;5466;55.898;14.094;2023-09-19T03:15:10;9.02;;;3.50;;
10825;SDS011;5466;55.898;14.094;2023-09-19T03:17:11;6.65;;;3.22;;
10825;SDS011;5466;55.898;14.094;2023-09-19T03:19:14;5.30;;;3.22;;
10825;SDS011;5466;55.898;14.094;2023-09-19T03:21:15;6.70;;;3.20;;
10825;SDS011;5466;55.898;14.094;2023-09-19T03:23:17;4.40;;;3.00;;
10825;SDS011;5466;55.898;14.094;2023-09-19T03:25:17;5.35;;;3.08;;
10825;SDS011;5466;55.898;14.094;2023-09-19T03:27:19;4.82;;;2.47;;
10825;SDS011;5466;55.898;14.094;2023-09-19T03:29:20;4.55;;;2.75;;
10825;SDS011;5466;55.898;14.094;2023-09-19T03:31:21;5.45;;;3.22;;
10825;SDS011;5466;55.898;14.094;2023-09-19T03:33:21;4.38;;;3.13;;
10825;SDS011;5466;55.898;14.094;2023-09-19T03:35:22;4.35;;;3.00;;
10825;SDS011;5466;55.898;14.094;2023-09-19T03:37:22;6.13;;;3.40;;
10825;SDS011;5466;55.898;14.094;2023-09-19T03:39:23;3.97;;;2.67;;
10825;SDS011;5466;55.898;14.094;2023-09-19T03:41:24;7.55;;;3.15;;
10825;SDS011;5466;55.898;14.094;2023-09-19T03:43:24;5.80;;;3.00;;
10825;SDS011;5466;55.898;14.094;2023-09-19T03:45:25;5.30;;;2.97;;
10825;SDS011;5466;55.898;14.094;2023-09-19T03:47:25;7.85;;;3.30;;
10825;SDS011;5466;55.898;14.094;2023-09-19T03:49:26;8.60;;;3.03;;
10825;SDS011;5466;55.898;14.094;2023-09-19T03:51:26;5.50;;;2.83;;
10825;SDS011;5466;55.898;14.094;2023-09-19T03:53:27;5.70;;;3.13;;
10825;SDS011;5466;55.898;14.094;2023-09-19T03:55:28;7.45;;;3.00;;
10825;SDS011;5466;55.898;14.094;2023-09-19T03:57:29;3.85;;;2.80;;
10825;SDS011;5466;55.898;14.094;2023-09-19T03:59:30;5.03;;;2.33;;
10825;SDS011;5466;55.898;14.094;2023-09-19T04:01:31;3.72;;;2.50;;
10825;SDS011;5466;55.898;14.094;2023-09-19T04:03:33;4.80;;;2.60;;
10825;SDS011;5466;55.898;14.094;2023-09-19T04:05:45;3.83;;;2.35;;
10825;SDS011;5466;55.898;14.094;2023-09-19T04:07:46;5.22;;;2.38;;
10825;SDS011;5466;55.898;14.094;2023-09-19T04:09:47;6.30;;;2.50;;
10825;SDS011;5466;55.898;14.094;2023-09-19T04:11:49;4.25;;;2.65;;
10825;SDS011;5466;55.898;14.094;2023-09-19T04:13:50;7.55;;;2.58;;
10825;SDS011;5466;55.898;14.094;2023-09-19T04:15:50;6.35;;;2.90;;
10825;SDS011;5466;55.898;14.094;2023-09-19T04:17:51;3.65;;;2.40;;
10825;SDS011;5466;55.898;14.094;2023-09-19T04:19:52;5.43;;;2.92;;
10825;SDS011;5466;55.898;14.094;2023-09-19T04:21:53;5.05;;;2.20;;
10825;SDS011;5466;55.898;14.094;2023-09-19T04:23:54;6.22;;;2.63;;
10825;SDS011;5466;55.898;14.094;2023-09-19T04:25:54;4.57;;;2.83;;
10825;SDS011;5466;55.898;14.094;2023-09-19T04:27:55;4.55;;;2.58;;
10825;SDS011;5466;55.898;14.094;2023-09-19T04:29:55;5.82;;;2.67;;
10825;SDS011;5466;55.898;14.094;2023-09-19T04:31:59;4.30;;;2.22;;
10825;SDS011;5466;55.898;14.094;2023-09-19T04:33:59;2.85;;;2.30;;
10825;SDS011;5466;55.898;14.094;2023-09-19T04:36:05;4.82;;;2.83;;
10825;SDS011;5466;55.898;14.094;2023-09-19T04:38:07;4.15;;;2.38;;
10825;SDS011;5466;55.898;14.094;2023-09-19T04:40:08;3.80;;;2.28;;
10825;SDS011;5466;55.898;14.094;2023-09-19T04:42:14;4.07;;;2.40;;
10825;SDS011;5466;55.898;14.094;2023-09-19T04:44:15;5.57;;;2.30;;
10825;SDS011;5466;55.898;14.094;2023-09-19T04:46:15;5.72;;;2.30;;
10825;SDS011;5466;55.898;14.094;2023-09-19T04:48:17;6.30;;;2.20;;
10825;SDS011;5466;55.898;14.094;2023-09-19T04:50:18;5.75;;;2.50;;
10825;SDS011;5466;55.898;14.094;2023-09-19T04:52:21;5.13;;;2.10;;
10825;SDS011;5466;55.898;14.094;2023-09-19T04:54:21;5.05;;;2.28;;
10825;SDS011;5466;55.898;14.094;2023-09-19T04:56:22;5.82;;;2.50;;
10825;SDS011;5466;55.898;14.094;2023-09-19T04:58:24;3.85;;;2.35;;
10825;SDS011;5466;55.898;14.094;2023-09-19T05:00:24;5.75;;;2.40;;
10825;SDS011;5466;55.898;14.094;2023-09-19T05:02:28;5.05;;;2.22;;
10825;SDS011;5466;55.898;14.094;2023-09-19T05:04:31;6.18;;;2.05;;
10825;SDS011;5466;55.898;14.094;2023-09-19T05:06:32;2.78;;;2.22;;
10825;SDS011;5466;55.898;14.094;2023-09-19T05:08:33;8.10;;;2.88;;
10825;SDS011;5466;55.898;14.094;2023-09-19T05:10:34;6.72;;;2.60;;
10825;SDS011;5466;55.898;14.094;2023-09-19T05:12:37;3.00;;;2.20;;
10825;SDS011;5466;55.898;14.094;2023-09-19T05:14:38;4.55;;;2.20;;
10825;SDS011;5466;55.898;14.094;2023-09-19T05:16:40;8.45;;;2.88;;
10825;SDS011;5466;55.898;14.094;2023-09-19T05:18:41;5.65;;;2.33;;
10825;SDS011;5466;55.898;14.094;2023-09-19T05:20:42;3.70;;;2.13;;
10825;SDS011;5466;55.898;14.094;2023-09-19T05:22:43;3.78;;;2.10;;
10825;SDS011;5466;55.898;14.094;2023-09-19T05:24:46;4.82;;;2.33;;
10825;SDS011;5466;55.898;14.094;2023-09-19T05:26:49;6.72;;;2.38;;
10825;SDS011;5466;55.898;14.094;2023-09-19T05:28:50;3.15;;;2.22;;
10825;SDS011;5466;55.898;14.094;2023-09-19T05:30:50;4.28;;;2.33;;
10825;SDS011;5466;55.898;14.094;2023-09-19T05:32:51;6.43;;;3.15;;
10825;SDS011;5466;55.898;14.094;2023-09-19T05:34:51;4.65;;;2.38;;
10825;SDS011;5466;55.898;14.094;2023-09-19T05:36:53;3.28;;;2.15;;
10825;SDS011;5466;55.898;14.094;2023-09-19T05:38:54;4.75;;;2.72;;
10825;SDS011;5466;55.898;14.094;2023-09-19T05:40:55;5.63;;;2.42;;
10825;SDS011;5466;55.898;14.094;2023-09-19T05:42:56;6.47;;;3.08;;
10825;SDS011;5466;55.898;14.094;2023-09-19T05:44:57;6.22;;;2.40;;
10825;SDS011;5466;55.898;14.094;2023-09-19T05:46:58;4.53;;;2.78;;
10825;SDS011;5466;55.898;14.094;2023-09-19T05:48:59;6.20;;;2.25;;
10825;SDS011;5466;55.898;14.094;2023-09-19T05:50:59;6.00;;;2.20;;
10825;SDS011;5466;55.898;14.094;2023-09-19T05:53:01;5.03;;;2.90;;
10825;SDS011;5466;55.898;14.094;2023-09-19T05:55:01;6.43;;;2.20;;
10825;SDS011;5466;55.898;14.094;2023-09-19T05:57:05;3.95;;;2.00;;
10825;SDS011;5466;55.898;14.094;2023-09-19T05:59:05;4.53;;;2.25;;
10825;SDS011;5466;55.898;14.094;2023-09-19T06:01:06;6.20;;;2.13;;
10825;SDS011;5466;55.898;14.094;2023-09-19T06:03:07;8.00;;;2.53;;
10825;SDS011;5466;55.898;14.094;2023-09-19T06:05:08;5.07;;;2.42;;
10825;SDS011;5466;55.898;14.094;2023-09-19T06:07:11;7.22;;;2.13;;
10825;SDS011;5466;55.898;14.094;2023-09-19T06:09:12;6.38;;;2.10;;
10825;SDS011;5466;55.898;14.094;2023-09-19T06:11:13;5.55;;;2.30;;
10825;SDS011;5466;55.898;14.094;2023-09-19T06:13:14;3.55;;;1.98;;
10825;SDS011;5466;55.898;14.094;2023-09-19T06:15:16;5.72;;;2.20;;
10825;SDS011;5466;55.898;14.094;2023-09-19T06:17:18;5.20;;;2.22;;
10825;SDS011;5466;55.898;14.094;2023-09-19T06:19:20;8.75;;;2.72;;
10825;SDS011;5466;55.898;14.094;2023-09-19T06:21:22;6.00;;;2.22;;
10825;SDS011;5466;55.898;14.094;2023-09-19T06:23:23;6.88;;;2.20;;
10825;SDS011;5466;55.898;14.094;2023-09-19T06:25:26;8.30;;;2.65;;
10825;SDS011;5466;55.898;14.094;2023-09-19T06:27:27;8.07;;;2.20;;
10825;SDS011;5466;55.898;14.094;2023-09-19T06:29:29;7.10;;;2.53;;
10825;SDS011;5466;55.898;14.094;2023-09-19T06:31:29;8.45;;;2.58;;
10825;SDS011;5466;55.898;14.094;2023-09-19T06:33:31;7.45;;;2.58;;
10825;SDS011;5466;55.898;14.094;2023-09-19T06:35:32;8.43;;;2.55;;
10825;SDS011;5466;55.898;14.094;2023-09-19T06:37:33;6.28;;;2.25;;
10825;SDS011;5466;55.898;14.094;2023-09-19T06:39:40;6.90;;;2.45;;
10825;SDS011;5466;55.898;14.094;2023-09-19T06:41:41;3.25;;;1.90;;
10825;SDS011;5466;55.898;14.094;2023-09-19T06:43:42;5.47;;;2.20;;
10825;SDS011;5466;55.898;14.094;2023-09-19T06:45:44;6.32;;;2.10;;
10825;SDS011;5466;55.898;14.094;2023-09-19T06:47:46;5.22;;;2.45;;
10825;SDS011;5466;55.898;14.094;2023-09-19T06:49:50;4.63;;;2.40;;
10825;SDS011;5466;55.898;14.094;2023-09-19T06:51:53;3.55;;;1.85;;
10825;SDS011;5466;55.898;14.094;2023-09-19T06:53:55;8.25;;;2.58;;
10825;SDS011;5466;55.898;14.094;2023-09-19T06:55:57;6.63;;;2.97;;
10825;SDS011;5466;55.898;14.094;2023-09-19T06:57:58;7.65;;;2.50;;
10825;SDS011;5466;55.898;14.094;2023-09-19T06:59:59;7.90;;;2.55;;
10825;SDS011;5466;55.898;14.094;2023-09-19T07:02:01;7.43;;;1.98;;
10825;SDS011;5466;55.898;14.094;2023-09-19T07:04:02;6.50;;;2.00;;
10825;SDS011;5466;55.898;14.094;2023-09-19T07:06:03;5.32;;;2.00;;
10825;SDS011;5466;55.898;14.094;2023-09-19T07:08:05;7.47;;;2.33;;
10825;SDS011;5466;55.898;14.094;2023-09-19T07:10:06;9.45;;;2.30;;
10825;SDS011;5466;55.898;14.094;2023-09-19T07:12:11;5.00;;;1.90;;
10825;SDS011;5466;55.898;14.094;2023-09-19T07:14:12;7.28;;;2.60;;
10825;SDS011;5466;55.898;14.094;2023-09-19T07:16:13;8.43;;;2.88;;
10825;SDS011;5466;55.898;14.094;2023-09-19T07:18:27;6.57;;;2.20;;
10825;SDS011;5466;55.898;14.094;2023-09-19T07:20:27;10.48;;;2.42;;
10825;SDS011;5466;55.898;14.094;2023-09-19T07:22:31;5.45;;;2.42;;
10825;SDS011;5466;55.898;14.094;2023-09-19T07:24:32;6.25;;;2.85;;
10825;SDS011;5466;55.898;14.094;2023-09-19T07:26:32;8.02;;;2.67;;
10825;SDS011;5466;55.898;14.094;2023-09-19T07:28:33;6.30;;;2.70;;
10825;SDS011;5466;55.898;14.094;2023-09-19T07:30:38;7.18;;;2.40;;
10825;SDS011;5466;55.898;14.094;2023-09-19T07:32:39;9.18;;;3.25;;
10825;SDS011;5466;55.898;14.094;2023-09-19T07:34:40;7.80;;;2.47;;
10825;SDS011;5466;55.898;14.094;2023-09-19T07:36:41;5.78;;;2.28;;
10825;SDS011;5466;55.898;14.094;2023-09-19T07:38:42;6.55;;;2.45;;
10825;SDS011;5466;55.898;14.094;2023-09-19T07:40:43;6.30;;;2.83;;
10825;SDS011;5466;55.898;14.094;2023-09-19T07:42:43;7.30;;;2.03;;
10825;SDS011;5466;55.898;14.094;2023-09-19T07:44:46;5.13;;;2.28;;
10825;SDS011;5466;55.898;14.094;2023-09-19T07:46:50;6.25;;;2.20;;
10825;SDS011;5466;55.898;14.094;2023-09-19T07:48:52;5.55;;;2.53;;
10825;SDS011;5466;55.898;14.094;2023-09-19T07:50:52;5.88;;;1.70;;
10825;SDS011;5466;55.898;14.094;2023-09-19T07:52:53;4.35;;;1.67;;
10825;SDS011;5466;55.898;14.094;2023-09-19T07:54:56;3.92;;;1.75;;
10825;SDS011;5466;55.898;14.094;2023-09-19T07:56:57;3.20;;;1.92;;
10825;SDS011;5466;55.898;14.094;2023-09-19T07:58:59;10.05;;;1.90;;
10825;SDS011;5466;55.898;14.094;2023-09-19T08:01:03;7.70;;;2.25;;
10825;SDS011;5466;55.898;14.094;2023-09-19T08:03:04;6.60;;;2.13;;
10825;SDS011;5466;55.898;14.094;2023-09-19T08:05:06;5.18;;;1.92;;
10825;SDS011;5466;55.898;14.094;2023-09-19T08:07:11;4.97;;;1.60;;
10825;SDS011;5466;55.898;14.094;2023-09-19T08:09:13;5.75;;;2.00;;
10825;SDS011;5466;55.898;14.094;2023-09-19T08:11:20;6.40;;;2.20;;
10825;SDS011;5466;55.898;14.094;2023-09-19T08:13:24;6.60;;;2.03;;
10825;SDS011;5466;55.898;14.094;2023-09-19T08:15:26;3.40;;;1.95;;
10825;SDS011;5466;55.898;14.094;2023-09-19T08:17:27;4.72;;;2.35;;
10825;SDS011;5466;55.898;14.094;2023-09-19T08:19:27;5.55;;;1.92;;
10825;SDS011;5466;55.898;14.094;2023-09-19T08:21:28;8.45;;;2.05;;
10825;SDS011;5466;55.898;14.094;2023-09-19T08:23:29;6.85;;;2.30;;
10825;SDS011;5466;55.898;14.094;2023-09-19T08:25:32;8.20;;;2.20;;
10825;SDS011;5466;55.898;14.094;2023-09-19T08:27:33;5.82;;;2.20;;
10825;SDS011;5466;55.898;14.094;2023-09-19T08:29:34;5.95;;;2.42;;
10825;SDS011;5466;55.898;14.094;2023-09-19T08:31:35;7.20;;;2.47;;
10825;SDS011;5466;55.898;14.094;2023-09-19T08:33:36;7.60;;;2.72;;
10825;SDS011;5466;55.898;14.094;2023-09-19T08:35:37;11.82;;;2.97;;
10825;SDS011;5466;55.898;14.094;2023-09-19T08:37:39;10.77;;;2.60;;
10825;SDS011;5466;55.898;14.094;2023-09-19T08:39:40;7.53;;;2.33;;
10825;SDS011;5466;55.898;14.094;2023-09-19T08:41:41;6.63;;;1.83;;
10825;SDS011;5466;55.898;14.094;2023-09-19T08:43:41;6.68;;;2.20;;
10825;SDS011;5466;55.898;14.094;2023-09-19T08:45:43;10.55;;;2.65;;
10825;SDS011;5466;55.898;14.094;2023-09-19T08:47:45;10.45;;;2.70;;
10825;SDS011;5466;55.898;14.094;2023-09-19T08:49:53;8.77;;;2.53;;
10825;SDS011;5466;55.898;14.094;2023-09-19T08:52:20;8.55;;;2.50;;
10825;SDS011;5466;55.898;14.094;2023-09-19T08:54:25;8.77;;;2.92;;
10825;SDS011;5466;55.898;14.094;2023-09-19T08:56:29;13.73;;;2.55;;
10825;SDS011;5466;55.898;14.094;2023-09-19T08:58:34;8.27;;;2.80;;
10825;SDS011;5466;55.898;14.094;2023-09-19T09:00:48;9.82;;;2.35;;
10825;SDS011;5466;55.898;14.094;2023-09-19T09:02:50;5.88;;;2.08;;
10825;SDS011;5466;55.898;14.094;2023-09-19T09:04:51;7.72;;;2.10;;
10825;SDS011;5466;55.898;14.094;2023-09-19T09:06:54;11.38;;;2.78;;
10825;SDS011;5466;55.898;14.094;2023-09-19T09:08:56;4.68;;;2.10;;
10825;SDS011;5466;55.898;14.094;2023-09-19T09:10:56;7.55;;;3.17;;
10825;SDS011;5466;55.898;14.094;2023-09-19T09:12:58;11.90;;;3.80;;
10825;SDS011;5466;55.898;14.094;2023-09-19T09:14:59;13.52;;;2.67;;
10825;SDS011;5466;55.898;14.094;2023-09-19T09:17:03;6.53;;;2.50;;
10825;SDS011;5466;55.898;14.094;2023-09-19T09:19:04;8.23;;;2.58;;
10825;SDS011;5466;55.898;14.094;2023-09-19T09:21:05;14.45;;;2.97;;
10825;SDS011;5466;55.898;14.094;2023-09-19T09:23:05;10.45;;;3.13;;
10825;SDS011;5466;55.898;14.094;2023-09-19T09:25:06;10.23;;;1.95;;
10825;SDS011;5466;55.898;14.094;2023-09-19T09:27:08;8.32;;;2.90;;
10825;SDS011;5466;55.898;14.094;2023-09-19T09:29:13;7.93;;;2.22;;
10825;SDS011;5466;55.898;14.094;2023-09-19T09:31:23;10.18;;;2.63;;
10825;SDS011;5466;55.898;14.094;2023-09-19T09:33:24;7.95;;;2.67;;
10825;SDS011;5466;55.898;14.094;2023-09-19T09:35:26;8.75;;;2.65;;
10825;SDS011;5466;55.898;14.094;2023-09-19T09:37:27;9.60;;;2.40;;
10825;SDS011;5466;55.898;14.094;2023-09-19T09:39:30;7.57;;;2.45;;
10825;SDS011;5466;55.898;14.094;2023-09-19T09:41:38;12.90;;;2.53;;
10825;SDS011;5466;55.898;14.094;2023-09-19T09:43:40;13.65;;;2.50;;
10825;SDS011;5466;55.898;14.094;2023-09-19T09:45:41;9.65;;;2.65;;
10825;SDS011;5466;55.898;14.094;2023-09-19T09:47:48;8.38;;;2.80;;
10825;SDS011;5466;55.898;14.094;2023-09-19T09:49:58;8.43;;;2.05;;
10825;SDS011;5466;55.898;14.094;2023-09-19T09:52:07;6.50;;;1.80;;
10825;SDS011;5466;55.898;14.094;2023-09-19T09:54:18;7.15;;;1.98;;
10825;SDS011;5466;55.898;14.094;2023-09-19T09:56:22;6.93;;;1.90;;
10825;SDS011;5466;55.898;14.094;2023-09-19T09:58:23;3.97;;;1.83;;
10825;SDS011;5466;55.898;14.094;2023-09-19T10:00:28;6.55;;;2.03;;
10825;SDS011;5466;55.898;14.094;2023-09-19T10:02:42;5.28;;;2.00;;
10825;SDS011;5466;55.898;14.094;2023-09-19T10:04:46;5.00;;;2.53;;
10825;SDS011;5466;55.898;14.094;2023-09-19T10:07:07;4.63;;;1.88;;
10825;SDS011;5466;55.898;14.094;2023-09-19T10:09:11;4.32;;;1.75;;
10825;SDS011;5466;55.898;14.094;2023-09-19T10:11:17;2.67;;;1.48;;
10825;SDS011;5466;55.898;14.094;2023-09-19T10:13:20;5.85;;;2.10;;
10825;SDS011;5466;55.898;14.094;2023-09-19T10:15:25;3.78;;;1.60;;
10825;SDS011;5466;55.898;14.094;2023-09-19T10:17:30;6.32;;;2.10;;
10825;SDS011;5466;55.898;14.094;2023-09-19T10:19:46;5.90;;;2.25;;
10825;SDS011;5466;55.898;14.094;2023-09-19T10:21:57;8.43;;;1.70;;
10825;SDS011;5466;55.898;14.094;2023-09-19T10:24:00;3.72;;;1.95;;
10825;SDS011;5466;55.898;14.094;2023-09-19T10:26:08;5.72;;;1.67;;
10825;SDS011;5466;55.898;14.094;2023-09-19T10:28:10;4.22;;;1.67;;
10825;SDS011;5466;55.898;14.094;2023-09-19T10:30:13;3.83;;;1.60;;
10825;SDS011;5466;55.898;14.094;2023-09-19T10:32:16;4.32;;;1.40;;
10825;SDS011;5466;55.898;14.094;2023-09-19T10:34:19;4.95;;;1.67;;
10825;SDS011;5466;55.898;14.094;2023-09-19T10:36:25;4.70;;;2.65;;
10825;SDS011;5466;55.898;14.094;2023-09-19T10:38:29;5.32;;;1.58;;
10825;SDS011;5466;55.898;14.094;2023-09-19T10:40:32;5.63;;;1.60;;
10825;SDS011;5466;55.898;14.094;2023-09-19T10:42:37;3.15;;;1.40;;
10825;SDS011;5466;55.898;14.094;2023-09-19T10:44:38;3.45;;;1.67;;
10825;SDS011;5466;55.898;14.094;2023-09-19T10:46:43;8.85;;;1.48;;
10825;SDS011;5466;55.898;14.094;2023-09-19T10:48:45;4.63;;;1.88;;
10825;SDS011;5466;55.898;14.094;2023-09-19T10:50:49;4.78;;;1.55;;
10825;SDS011;5466;55.898;14.094;2023-09-19T10:52:54;6.18;;;2.17;;
10825;SDS011;5466;55.898;14.094;2023-09-19T10:54:58;6.38;;;2.03;;
10825;SDS011;5466;55.898;14.094;2023-09-19T10:57:01;5.13;;;1.73;;
10825;SDS011;5466;55.898;14.094;2023-09-19T10:59:06;3.20;;;1.40;;
10825;SDS011;5466;55.898;14.094;2023-09-19T11:01:07;4.28;;;1.52;;
10825;SDS011;5466;55.898;14.094;2023-09-19T11:03:18;4.57;;;1.70;;
10825;SDS011;5466;55.898;14.094;2023-09-19T11:05:20;5.28;;;1.70;;
10825;SDS011;5466;55.898;14.094;2023-09-19T11:07:21;7.40;;;1.80;;
10825;SDS011;5466;55.898;14.094;2023-09-19T11:09:22;6.15;;;1.40;;
10825;SDS011;5466;55.898;14.094;2023-09-19T11:13:42;8.40;;;2.17;;
10825;SDS011;5466;55.898;14.094;2023-09-19T11:17:59;12.75;;;1.85;;
10825;SDS011;5466;55.898;14.094;2023-09-19T11:22:12;3.63;;;1.50;;
10825;SDS011;5466;55.898;14.094;2023-09-19T11:26:39;7.07;;;1.55;;
10825;SDS011;5466;55.898;14.094;2023-09-19T11:28:47;5.82;;;2.03;;
10825;SDS011;5466;55.898;14.094;2023-09-19T11:30:48;4.03;;;1.63;;
10825;SDS011;5466;55.898;14.094;2023-09-19T11:38:00;5.80;;;1.70;;
10825;SDS011;5466;55.898;14.094;2023-09-19T11:40:07;4.35;;;1.98;;
10825;SDS011;5466;55.898;14.094;2023-09-19T11:43:27;6.15;;;2.10;;
10825;SDS011;5466;55.898;14.094;2023-09-19T11:44:41;5.88;;;1.55;;
10825;SDS011;5466;55.898;14.094;2023-09-19T11:46:52;5.95;;;1.80;;
10825;SDS011;5466;55.898;14.094;2023-09-19T11:48:54;4.57;;;1.58;;
10825;SDS011;5466;55.898;14.094;2023-09-19T11:50:56;5.90;;;1.85;;
10825;SDS011;5466;55.898;14.094;2023-09-19T11:52:57;6.43;;;2.10;;
10825;SDS011;5466;55.898;14.094;2023-09-19T11:54:58;7.55;;;1.70;;
10825;SDS011;5466;55.898;14.094;2023-09-19T11:57:01;6.45;;;1.90;;
10825;SDS011;5466;55.898;14.094;2023-09-19T11:59:03;6.90;;;1.70;;
10825;SDS011;5466;55.898;14.094;2023-09-19T12:01:03;6.57;;;2.20;;
10825;SDS011;5466;55.898;14.094;2023-09-19T12:03:12;6.72;;;2.58;;
10825;SDS011;5466;55.898;14.094;2023-09-19T12:05:27;5.15;;;1.75;;
10825;SDS011;5466;55.898;14.094;2023-09-19T12:07:41;5.63;;;2.20;;
10825;SDS011;5466;55.898;14.094;2023-09-19T12:09:46;4.88;;;1.85;;
10825;SDS011;5466;55.898;14.094;2023-09-19T12:11:48;7.15;;;1.63;;
10825;SDS011;5466;55.898;14.094;2023-09-19T12:13:50;3.90;;;1.65;;
10825;SDS011;5466;55.898;14.094;2023-09-19T12:15:51;6.43;;;2.00;;
10825;SDS011;5466;55.898;14.094;2023-09-19T12:17:51;4.75;;;1.85;;
10825;SDS011;5466;55.898;14.094;2023-09-19T12:19:53;4.50;;;1.60;;
10825;SDS011;5466;55.898;14.094;2023-09-19T12:21:59;4.97;;;1.50;;
10825;SDS011;5466;55.898;14.094;2023-09-19T12:24:05;3.67;;;1.85;;
10825;SDS011;5466;55.898;14.094;2023-09-19T12:26:06;6.88;;;2.03;;
10825;SDS011;5466;55.898;14.094;2023-09-19T12:28:12;7.55;;;2.45;;
10825;SDS011;5466;55.898;14.094;2023-09-19T12:30:13;3.47;;;1.85;;
10825;SDS011;5466;55.898;14.094;2023-09-19T12:32:17;3.13;;;1.88;;
10825;SDS011;5466;55.898;14.094;2023-09-19T12:34:25;3.35;;;1.73;;
10825;SDS011;5466;55.898;14.094;2023-09-19T12:36:29;3.97;;;1.83;;
10825;SDS011;5466;55.898;14.094;2023-09-19T12:38:30;5.45;;;1.70;;
10825;SDS011;5466;55.898;14.094;2023-09-19T12:40:35;5.95;;;2.17;;
10825;SDS011;5466;55.898;14.094;2023-09-19T12:42:38;4.22;;;2.05;;
10825;SDS011;5466;55.898;14.094;2023-09-19T12:44:40;5.35;;;1.90;;
10825;SDS011;5466;55.898;14.094;2023-09-19T12:46:43;3.75;;;1.80;;